This is the latest recevied weather packets stored in our database for station/object AD6NH. If no packets are shown the sender has not sent any weather packets the latest 10 day(s).
| Time | Temp. | Humidity | Pressure | Rain* | Wind** | Luminosity | Snow |
|---|---|---|---|---|---|---|---|
| 1788038049 | 91° F | 45% | 758.5 mmHg | 0 in | - | - | - |
| 1788036249 | 95° F | 40% | 758.5 mmHg | 0 in | - | - | - |
| 1788034449 | 95° F | 41% | 758.7 mmHg | 0 in | - | - | - |
| 1788032649 | 94° F | 46% | 758.8 mmHg | 0 in | - | - | - |
| 1788030850 | 92° F | 50% | 759.1 mmHg | 0 in | - | - | - |
| 1788029050 | 91° F | 53% | 759.3 mmHg | 0 in | - | - | - |
| 1788027249 | 90° F | 57% | 759.4 mmHg | 0 in | - | - | - |
| 1788025449 | 88° F | 60% | 759.6 mmHg | 0 in | - | - | - |
| 1788023649 | 89° F | 57% | 759.8 mmHg | 0 in | - | - | - |
| 1788021849 | 86° F | 62% | 759.6 mmHg | 0 in | - | - | - |
| 1788020049 | 85° F | 64% | 759.6 mmHg | 0 in | - | - | - |
| 1788018249 | 85° F | 66% | 759.4 mmHg | 0 in | - | - | - |
| 1788016449 | 83° F | 72% | 759.3 mmHg | 0 in | - | - | - |
| 1788014650 | 81° F | 76% | 759.4 mmHg | 0 in | - | - | - |
| 1788012849 | 78° F | 83% | 759.1 mmHg | 0 in | - | - | - |
| 1788011049 | 74° F | 89% | 759 mmHg | 0 in | - | - | - |
| 1788009249 | 73° F | 89% | 758.8 mmHg | 0 in | - | - | - |
| 1788007449 | 74° F | 89% | 759 mmHg | 0 in | - | - | - |
| 1788005649 | 74° F | 89% | 758.8 mmHg | 0 in | - | - | - |
| 1788003850 | 74° F | 88% | 758.8 mmHg | 0 in | - | - | - |
| 1788002049 | 75° F | 87% | 758.7 mmHg | 0 in | - | - | - |
| 1788000249 | 74° F | 85% | 758.6 mmHg | 0 in | - | - | - |
| 1787998449 | 75° F | 82% | 758.5 mmHg | 0 in | - | - | - |
| 1787996649 | 75° F | 83% | 758.3 mmHg | 0 in | - | - | - |
| 1787994849 | 75° F | 81% | 758.5 mmHg | 0 in | - | - | - |
* Rain latest hour (hover to see other rain measurements)
** Current wind speed in m/s (hover to see current wind gust speed)